Terminal Aerodrome Forecast
Issued by NWS Cleveland, OH

Home | Current Version | Previous Version | Text Only | Print | Product List | Glossary Off
Versions: 1 2 3 4 5 6 7 8 9 10 11 12 13 14 15 16 17

413
FTUS41 KCLE 132313 AAA
TAFERI
TAF AMD
KERI 132313Z 1323/1418 33004KT P6SM BKN025
     FM140200 01006KT P6SM SCT100 BKN250
     FM141500 10006KT P6SM OVC100=

USA.gov is the U.S. government's official web portal to all federal, state and local government web resources and services.